createdAt,value
2023-03-18T00:01:35.295Z,12.88
2023-03-18T00:04:04.295Z,12.87
2023-03-18T00:06:32.178Z,12.81
2023-03-18T00:08:59.845Z,12.82
2023-03-18T00:11:28.797Z,12.87
2023-03-18T00:13:56.363Z,12.90
2023-03-18T00:16:24.256Z,12.91
2023-03-18T00:18:52.080Z,12.94
2023-03-18T00:21:19.782Z,12.92
2023-03-18T00:23:48.790Z,12.88
2023-03-18T00:26:17.132Z,12.86
2023-03-18T00:28:46.157Z,12.74
2023-03-18T00:31:14.028Z,12.67
2023-03-18T00:33:45.690Z,12.64
2023-03-18T00:36:14.655Z,12.66
2023-03-18T00:38:46.006Z,12.67
2023-03-18T00:41:15.774Z,12.68
2023-03-18T00:43:52.592Z,12.68
2023-03-18T00:46:23.440Z,12.72
2023-03-18T00:48:52.174Z,12.69
2023-03-18T00:51:22.612Z,12.70
2023-03-18T00:53:52.118Z,12.69
2023-03-18T00:56:22.067Z,12.66
2023-03-18T00:58:52.228Z,12.66
2023-03-18T01:01:20.764Z,12.67
2023-03-18T01:03:50.043Z,12.64
2023-03-18T01:06:20.563Z,12.59
2023-03-18T01:08:48.190Z,12.58
2023-03-18T01:11:16.171Z,12.57
2023-03-18T01:13:44.245Z,12.56
2023-03-18T01:16:13.557Z,12.53
2023-03-18T01:18:41.798Z,12.60
2023-03-18T01:21:10.580Z,12.63
2023-03-18T01:23:39.229Z,12.66
2023-03-18T01:26:07.615Z,12.68
2023-03-18T01:28:35.264Z,12.71
2023-03-18T01:31:03.239Z,12.68
2023-03-18T01:33:33.420Z,12.67
2023-03-18T01:36:03.786Z,12.70
2023-03-18T01:38:31.833Z,12.69
2023-03-18T01:41:00.180Z,12.68
2023-03-18T01:43:30.512Z,12.67
2023-03-18T01:46:00.229Z,12.66
2023-03-18T01:48:30.799Z,12.67
2023-03-18T01:51:02.831Z,12.70
2023-03-18T01:53:36.023Z,12.74
2023-03-18T01:56:05.946Z,12.76
2023-03-18T01:58:38.204Z,12.80
2023-03-18T02:01:10.483Z,12.81
2023-03-18T02:03:41.940Z,12.81
2023-03-18T02:06:12.353Z,12.81
2023-03-18T02:08:41.167Z,12.81
2023-03-18T02:11:10.157Z,12.86
2023-03-18T02:13:41.345Z,12.81
2023-03-18T02:16:14.597Z,12.80
2023-03-18T02:18:46.924Z,12.81
2023-03-18T02:21:29.605Z,12.76
2023-03-18T02:24:09.461Z,12.68
2023-03-18T02:26:52.464Z,12.55
2023-03-18T02:29:22.946Z,12.54
2023-03-18T02:31:51.022Z,12.48
2023-03-18T02:34:19.595Z,12.49
2023-03-18T02:36:47.463Z,12.49
2023-03-18T02:39:16.708Z,12.50
2023-03-18T02:41:45.429Z,12.49
2023-03-18T02:44:13.690Z,12.48
2023-03-18T02:46:53.922Z,12.46
2023-03-18T02:49:23.275Z,12.43
2023-03-18T02:51:53.939Z,12.42
2023-03-18T02:54:23.564Z,12.40
2023-03-18T02:56:51.876Z,12.39
2023-03-18T02:59:20.499Z,12.41
2023-03-18T03:01:52.112Z,12.40
2023-03-18T03:04:22.096Z,12.38
2023-03-18T03:06:50.279Z,12.43
2023-03-18T03:09:18.461Z,12.42
2023-03-18T03:11:48.108Z,12.40
2023-03-18T03:14:17.213Z,12.36
2023-03-18T03:16:45.199Z,12.31
2023-03-18T03:19:14.283Z,12.32
2023-03-18T03:21:42.298Z,12.27
2023-03-18T03:24:10.867Z,12.27
2023-03-18T03:26:38.572Z,12.26
2023-03-18T03:29:07.312Z,12.28
2023-03-18T03:31:35.617Z,12.28
2023-03-18T03:34:04.674Z,12.23
2023-03-18T03:36:33.660Z,12.18
2023-03-18T03:39:01.332Z,12.18
2023-03-18T03:41:28.989Z,12.17
2023-03-18T03:43:56.628Z,12.16
2023-03-18T03:46:24.275Z,12.15
2023-03-18T03:48:51.955Z,12.10
2023-03-18T03:51:19.803Z,12.12
2023-03-18T03:53:48.879Z,12.09
2023-03-18T03:56:17.960Z,12.07
2023-03-18T03:58:45.724Z,12.08
2023-03-18T04:01:13.559Z,12.04
2023-03-18T04:03:41.105Z,12.02
2023-03-18T04:06:09.015Z,12.02
2023-03-18T04:08:36.722Z,12.00
2023-03-18T04:11:05.961Z,12.00
2023-03-18T04:13:33.705Z,11.98
2023-03-18T04:16:01.451Z,11.96
2023-03-18T04:18:29.064Z,11.93
2023-03-18T04:20:56.773Z,11.91
2023-03-18T04:23:24.380Z,11.94
2023-03-18T04:25:52.253Z,11.93
2023-03-18T04:28:21.191Z,11.91
2023-03-18T04:30:49.046Z,11.85
2023-03-18T04:33:16.707Z,11.87
2023-03-18T04:35:44.612Z,11.87
2023-03-18T04:38:12.874Z,11.84
2023-03-18T04:40:40.852Z,11.82
2023-03-18T04:43:09.897Z,11.81
2023-03-18T04:45:38.885Z,11.75
2023-03-18T04:48:06.871Z,11.74
2023-03-18T04:50:35.271Z,11.75
2023-03-18T04:53:03.397Z,11.74
2023-03-18T04:55:31.313Z,11.73
2023-03-18T04:57:59.078Z,11.69
2023-03-18T05:00:27.639Z,11.71
2023-03-18T05:02:56.615Z,11.66
2023-03-18T05:05:24.247Z,11.64
2023-03-18T05:07:52.016Z,11.65
2023-03-18T05:10:19.869Z,11.63
2023-03-18T05:12:48.522Z,11.63
2023-03-18T05:15:16.151Z,11.61
2023-03-18T05:17:43.948Z,11.60
2023-03-18T05:20:16.564Z,11.57
2023-03-18T05:22:44.189Z,11.57
2023-03-18T05:25:12.641Z,11.55
2023-03-18T05:27:40.502Z,11.54
2023-03-18T05:30:09.515Z,11.53
2023-03-18T05:32:38.025Z,11.53
2023-03-18T05:35:06.748Z,11.57
2023-03-18T05:37:36.885Z,11.55
2023-03-18T05:40:05.020Z,11.56
2023-03-18T05:42:35.169Z,11.56
2023-03-18T05:45:05.072Z,11.55
2023-03-18T05:47:32.961Z,11.53
2023-03-18T05:50:02.827Z,11.49
2023-03-18T05:52:33.121Z,11.51
2023-03-18T05:55:02.330Z,11.55
2023-03-18T05:57:32.647Z,11.59
2023-03-18T06:00:00.724Z,11.61
2023-03-18T06:02:28.400Z,11.56
2023-03-18T06:04:56.012Z,11.50
2023-03-18T06:07:23.643Z,11.47
2023-03-18T06:09:52.236Z,11.47
2023-03-18T06:12:23.900Z,11.55
2023-03-18T06:14:52.366Z,11.50
2023-03-18T06:17:20.291Z,11.54
2023-03-18T06:19:48.985Z,11.56
2023-03-18T06:22:17.460Z,11.59
2023-03-18T06:24:47.186Z,11.64
2023-03-18T06:27:15.922Z,11.67
2023-03-18T06:29:45.173Z,11.71
2023-03-18T06:32:13.080Z,11.73
2023-03-18T06:34:41.045Z,11.72
2023-03-18T06:37:09.601Z,11.79
2023-03-18T06:39:38.149Z,11.80
2023-03-18T06:42:07.018Z,11.79
2023-03-18T06:44:35.313Z,11.78
2023-03-18T06:47:04.309Z,11.73
2023-03-18T06:49:32.531Z,11.77
2023-03-18T06:52:00.412Z,11.80
2023-03-18T06:54:28.621Z,11.80
2023-03-18T06:56:56.228Z,11.84
2023-03-18T06:59:23.926Z,11.87
2023-03-18T07:01:51.627Z,11.93
2023-03-18T07:04:20.640Z,12.00
2023-03-18T07:06:48.289Z,12.06
2023-03-18T07:09:16.732Z,12.03
2023-03-18T07:11:45.681Z,12.15
2023-03-18T07:14:14.425Z,12.18
2023-03-18T07:16:44.732Z,12.20
2023-03-18T07:19:12.429Z,12.18
2023-03-18T07:21:42.916Z,12.27
2023-03-18T07:24:11.272Z,12.34
2023-03-18T07:26:39.295Z,12.32
2023-03-18T07:29:07.022Z,12.42
2023-03-18T07:31:34.813Z,12.47
2023-03-18T07:34:02.552Z,12.37
2023-03-18T07:36:30.329Z,12.33
2023-03-18T07:39:02.018Z,12.33
2023-03-18T07:41:29.981Z,12.34
2023-03-18T07:43:57.770Z,12.26
2023-03-18T07:46:25.817Z,12.35
2023-03-18T07:48:56.123Z,12.31
2023-03-18T07:51:23.780Z,12.30
2023-03-18T07:53:51.746Z,12.37
2023-03-18T07:56:21.257Z,12.41
2023-03-18T07:58:49.086Z,12.36
2023-03-18T08:01:18.362Z,12.35
2023-03-18T08:03:47.450Z,12.40
2023-03-18T08:06:16.360Z,12.40
2023-03-18T08:08:45.456Z,12.35
2023-03-18T08:11:14.723Z,12.30
2023-03-18T08:13:43.951Z,12.34
2023-03-18T08:16:12.223Z,12.43
2023-03-18T08:18:39.927Z,12.71
2023-03-18T08:21:07.793Z,12.92
2023-03-18T08:23:35.799Z,13.08
2023-03-18T08:26:03.658Z,13.07
2023-03-18T08:28:31.402Z,13.26
2023-03-18T08:31:01.164Z,13.43
2023-03-18T08:33:28.978Z,13.35
2023-03-18T08:35:57.813Z,13.46
2023-03-18T08:38:25.852Z,13.49
2023-03-18T08:40:53.817Z,13.60
2023-03-18T08:43:23.010Z,13.83
2023-03-18T08:45:54.535Z,13.81
2023-03-18T08:48:25.665Z,13.75
2023-03-18T08:50:53.562Z,13.58
2023-03-18T08:53:21.348Z,13.53
2023-03-18T08:55:49.508Z,13.38
2023-03-18T08:58:18.411Z,13.34
2023-03-18T09:00:46.755Z,13.21
2023-03-18T09:03:16.000Z,13.19
2023-03-18T09:05:48.869Z,13.26
2023-03-18T09:08:16.629Z,13.29
2023-03-18T09:10:47.244Z,13.38
2023-03-18T09:13:15.403Z,13.40
2023-03-18T09:15:43.164Z,13.45
2023-03-18T09:18:12.638Z,13.65
2023-03-18T09:20:40.553Z,13.75
2023-03-18T09:23:11.363Z,13.76
2023-03-18T09:25:39.922Z,13.84
2023-03-18T09:28:07.712Z,13.83
2023-03-18T09:30:39.385Z,13.78
2023-03-18T09:33:09.178Z,13.75
2023-03-18T09:35:38.483Z,13.85
2023-03-18T09:38:07.222Z,13.92
2023-03-18T09:40:41.327Z,14.18
2023-03-18T09:43:21.047Z,14.22
2023-03-18T09:46:00.553Z,14.53
2023-03-18T09:48:45.889Z,14.76
2023-03-18T09:51:25.369Z,14.81
2023-03-18T09:53:57.755Z,14.73
2023-03-18T09:56:30.548Z,14.71
2023-03-18T09:59:03.367Z,14.64
2023-03-18T10:01:34.739Z,14.52
2023-03-18T10:04:07.255Z,14.54
2023-03-18T10:06:39.169Z,14.59
2023-03-18T10:09:15.868Z,14.64
2023-03-18T10:11:47.326Z,14.66
2023-03-18T10:14:25.239Z,14.49
2023-03-18T10:17:04.673Z,14.46
2023-03-18T10:19:32.916Z,14.52
2023-03-18T10:22:18.140Z,14.54
2023-03-18T10:24:53.651Z,14.54
2023-03-18T10:27:38.295Z,14.60
2023-03-18T10:30:30.372Z,14.74
2023-03-18T10:33:08.202Z,14.74
2023-03-18T10:35:41.483Z,14.80
2023-03-18T10:38:18.936Z,14.82
2023-03-18T10:40:47.920Z,14.73
2023-03-18T10:43:19.431Z,14.75
2023-03-18T10:45:49.513Z,14.90
2023-03-18T10:48:26.546Z,14.93
2023-03-18T10:51:04.707Z,14.91
2023-03-18T10:53:39.036Z,14.90
2023-03-18T10:56:10.402Z,14.88
2023-03-18T10:58:41.493Z,14.92
2023-03-18T11:01:13.117Z,14.87
2023-03-18T11:03:45.043Z,14.85
2023-03-18T11:06:18.785Z,14.86
2023-03-18T11:08:49.825Z,14.90
2023-03-18T11:11:23.734Z,14.92
2023-03-18T11:13:55.711Z,14.87
2023-03-18T11:16:30.607Z,14.91
2023-03-18T11:19:00.015Z,14.89
2023-03-18T11:21:29.863Z,14.86
2023-03-18T11:24:20.935Z,14.86
2023-03-18T11:26:55.928Z,14.93
2023-03-18T11:29:29.034Z,15.04
2023-03-18T11:31:59.235Z,15.08
2023-03-18T11:34:29.956Z,15.19
2023-03-18T11:37:01.126Z,15.20
2023-03-18T11:39:31.572Z,15.12
2023-03-18T11:42:01.482Z,15.09
2023-03-18T11:44:32.808Z,15.20
2023-03-18T11:47:07.345Z,15.27
2023-03-18T11:49:35.458Z,15.45
2023-03-18T11:52:15.879Z,15.51
2023-03-18T11:55:15.693Z,15.61
2023-03-18T11:58:01.986Z,15.60
2023-03-18T12:00:38.967Z,15.72
2023-03-18T12:03:40.941Z,15.83
2023-03-18T12:06:20.171Z,16.05
2023-03-18T12:08:54.279Z,16.09
2023-03-18T12:11:32.972Z,15.96
2023-03-18T12:14:09.567Z,15.89
2023-03-18T12:16:50.455Z,15.97
2023-03-18T12:19:39.934Z,15.83
2023-03-18T12:22:43.287Z,15.87
2023-03-18T12:25:30.466Z,16.08
2023-03-18T12:28:04.150Z,16.03
2023-03-18T12:30:53.094Z,16.11
2023-03-18T12:33:37.116Z,16.27
2023-03-18T12:36:14.077Z,16.36
2023-03-18T12:39:11.617Z,16.53
2023-03-18T12:41:50.281Z,16.57
2023-03-18T12:44:33.484Z,16.54
2023-03-18T12:47:06.623Z,16.65
2023-03-18T12:49:39.887Z,16.81
2023-03-18T12:52:10.476Z,16.75
2023-03-18T12:54:42.912Z,16.58
2023-03-18T12:57:18.974Z,16.46
2023-03-18T12:59:53.335Z,16.39
2023-03-18T13:02:36.369Z,16.35
2023-03-18T13:05:14.185Z,16.40
2023-03-18T13:07:47.085Z,16.46
2023-03-18T13:10:22.491Z,16.51
2023-03-18T13:12:54.816Z,16.57
2023-03-18T13:15:29.949Z,16.62
2023-03-18T13:18:01.597Z,16.70
2023-03-18T13:20:34.761Z,16.87
2023-03-18T13:23:17.508Z,16.96
2023-03-18T13:25:57.346Z,17.03
2023-03-18T13:28:41.959Z,16.93
2023-03-18T13:31:15.463Z,16.82
2023-03-18T13:33:59.064Z,16.75
2023-03-18T13:36:55.549Z,16.74
2023-03-18T13:39:37.384Z,16.68
2023-03-18T13:42:21.595Z,16.54
2023-03-18T13:44:56.520Z,16.48
2023-03-18T13:47:25.478Z,16.45
2023-03-18T13:50:01.113Z,16.36
2023-03-18T13:52:36.998Z,16.42
2023-03-18T13:55:14.466Z,16.54
2023-03-18T13:57:48.920Z,16.78
2023-03-18T14:00:34.139Z,17.03
2023-03-18T14:03:06.388Z,16.84
2023-03-18T14:05:40.438Z,16.88
2023-03-18T14:08:37.128Z,16.89
2023-03-18T14:11:49.853Z,16.87
2023-03-18T14:15:06.187Z,16.89
2023-03-18T14:17:46.029Z,16.93
2023-03-18T14:20:30.022Z,16.93
2023-03-18T14:23:18.976Z,16.90
2023-03-18T14:25:54.980Z,16.86
2023-03-18T14:28:26.420Z,16.85
2023-03-18T14:31:22.184Z,16.80
2023-03-18T14:34:02.988Z,16.85
2023-03-18T14:37:18.487Z,16.80
2023-03-18T14:39:52.603Z,16.65
2023-03-18T14:42:31.775Z,16.69
2023-03-18T14:45:06.611Z,16.62
2023-03-18T14:47:46.186Z,16.63
2023-03-18T14:50:19.125Z,16.67
2023-03-18T14:52:54.037Z,16.63
2023-03-18T14:55:25.590Z,16.56
2023-03-18T14:57:54.539Z,16.52
2023-03-18T15:00:24.176Z,16.42
2023-03-18T15:03:01.005Z,16.43
2023-03-18T15:05:35.060Z,16.49
2023-03-18T15:08:07.199Z,16.43
2023-03-18T15:10:34.883Z,16.47
2023-03-18T15:13:07.611Z,16.52
2023-03-18T15:15:35.931Z,16.55
2023-03-18T15:18:12.330Z,16.54
2023-03-18T15:20:40.698Z,16.53
2023-03-18T15:23:10.156Z,16.52
2023-03-18T15:25:42.480Z,16.57
2023-03-18T15:28:19.130Z,16.55
2023-03-18T15:30:55.730Z,16.55
2023-03-18T15:33:26.036Z,16.47
2023-03-18T15:35:58.028Z,16.45
2023-03-18T15:38:31.118Z,16.39
2023-03-18T15:41:02.913Z,16.37
2023-03-18T15:43:35.810Z,16.36
2023-03-18T15:46:09.457Z,16.35
2023-03-18T15:48:40.186Z,16.36
2023-03-18T15:51:22.125Z,16.29
2023-03-18T15:53:53.512Z,16.30
2023-03-18T15:56:27.099Z,16.32
2023-03-18T15:59:03.910Z,16.29
2023-03-18T16:01:32.011Z,16.26
2023-03-18T16:04:02.700Z,16.30
2023-03-18T16:06:34.253Z,16.40
2023-03-18T16:09:02.256Z,16.43
2023-03-18T16:11:30.090Z,16.40
2023-03-18T16:13:59.704Z,16.37
2023-03-18T16:16:30.635Z,16.30
2023-03-18T16:18:59.629Z,16.29
2023-03-18T16:21:27.959Z,16.24
2023-03-18T16:23:55.878Z,16.26
2023-03-18T16:26:23.819Z,16.26
2023-03-18T16:28:51.674Z,16.26
2023-03-18T16:31:20.687Z,16.27
2023-03-18T16:33:52.784Z,16.26
2023-03-18T16:36:28.012Z,16.24
2023-03-18T16:38:56.091Z,16.28
2023-03-18T16:41:23.819Z,16.35
2023-03-18T16:43:52.614Z,16.32
2023-03-18T16:46:21.624Z,16.35
2023-03-18T16:48:50.379Z,16.40
2023-03-18T16:51:19.018Z,16.41
2023-03-18T16:53:46.662Z,16.39
2023-03-18T16:56:20.776Z,16.28
2023-03-18T16:58:48.598Z,16.19
2023-03-18T17:01:19.207Z,16.13
2023-03-18T17:03:48.306Z,16.11
2023-03-18T17:06:16.140Z,16.07
2023-03-18T17:08:43.850Z,16.01
2023-03-18T17:11:19.008Z,15.97
2023-03-18T17:13:47.142Z,15.95
2023-03-18T17:16:19.886Z,15.92
2023-03-18T17:18:49.469Z,15.89
2023-03-18T17:21:17.249Z,15.86
2023-03-18T17:23:45.733Z,15.85
2023-03-18T17:26:16.147Z,15.80
2023-03-18T17:28:46.621Z,15.77
2023-03-18T17:31:14.878Z,15.75
2023-03-18T17:33:43.000Z,15.72
2023-03-18T17:36:13.102Z,15.70
2023-03-18T17:38:41.816Z,15.65
2023-03-18T17:41:17.962Z,15.63
2023-03-18T17:43:45.993Z,15.60
2023-03-18T17:46:16.354Z,15.56
2023-03-18T17:48:44.207Z,15.53
2023-03-18T17:51:16.505Z,15.49
2023-03-18T17:53:47.824Z,15.44
2023-03-18T17:56:17.651Z,15.44
2023-03-18T17:58:47.054Z,15.51
2023-03-18T18:01:19.459Z,15.53
2023-03-18T18:03:48.337Z,15.52
2023-03-18T18:06:19.665Z,15.52
2023-03-18T18:08:51.400Z,15.47
2023-03-18T18:11:22.865Z,15.43
2023-03-18T18:13:52.490Z,15.38
2023-03-18T18:16:21.511Z,15.31
2023-03-18T18:18:50.291Z,15.29
2023-03-18T18:21:22.138Z,15.28
2023-03-18T18:23:50.322Z,15.20
2023-03-18T18:26:19.600Z,15.18
2023-03-18T18:28:49.334Z,15.15
2023-03-18T18:31:19.279Z,15.16
2023-03-18T18:33:49.825Z,15.15
2023-03-18T18:36:21.612Z,15.09
2023-03-18T18:38:50.691Z,15.05
2023-03-18T18:41:18.349Z,15.03
2023-03-18T18:43:47.341Z,14.98
2023-03-18T18:46:23.477Z,14.89
2023-03-18T18:48:51.792Z,14.81
2023-03-18T18:51:22.875Z,14.76
2023-03-18T18:53:53.371Z,14.70
2023-03-18T18:56:25.561Z,14.67
2023-03-18T18:58:54.031Z,14.62
2023-03-18T19:01:22.092Z,14.53
2023-03-18T19:03:49.891Z,14.48
2023-03-18T19:06:30.748Z,14.40
2023-03-18T19:09:00.461Z,14.30
2023-03-18T19:11:29.445Z,14.32
2023-03-18T19:14:18.124Z,14.37
2023-03-18T19:16:48.077Z,14.37
2023-03-18T19:19:18.043Z,14.36
2023-03-18T19:21:47.159Z,14.35
2023-03-18T19:24:27.161Z,14.35
2023-03-18T19:26:56.154Z,14.38
2023-03-18T19:29:24.591Z,14.37
2023-03-18T19:31:52.765Z,14.41
2023-03-18T19:34:21.680Z,14.43
2023-03-18T19:36:53.826Z,14.44
2023-03-18T19:39:22.863Z,14.49
2023-03-18T19:41:51.226Z,14.53
2023-03-18T19:44:20.403Z,14.49
2023-03-18T19:46:50.798Z,14.44
2023-03-18T19:49:21.650Z,14.38
2023-03-18T19:51:51.011Z,14.35
2023-03-18T19:54:27.024Z,14.37
2023-03-18T19:56:56.260Z,14.36
2023-03-18T19:59:33.512Z,14.34
2023-03-18T20:02:04.991Z,14.04
2023-03-18T20:04:32.717Z,14.01
2023-03-18T20:07:04.756Z,14.03
2023-03-18T20:09:32.567Z,14.11
2023-03-18T20:12:04.691Z,14.10
2023-03-18T20:14:40.152Z,14.00
2023-03-18T20:17:30.589Z,13.88
2023-03-18T20:19:58.856Z,13.83
2023-03-18T20:22:31.440Z,13.76
2023-03-18T20:24:59.407Z,13.75
2023-03-18T20:27:27.128Z,13.79
2023-03-18T20:29:54.702Z,13.76
2023-03-18T20:32:23.669Z,13.76
2023-03-18T20:34:51.549Z,13.77
2023-03-18T20:37:25.867Z,13.76
2023-03-18T20:39:55.061Z,13.72
2023-03-18T20:42:22.737Z,13.74
2023-03-18T20:44:50.517Z,13.76
2023-03-18T20:47:18.439Z,13.78
2023-03-18T20:49:46.417Z,13.71
2023-03-18T20:52:25.771Z,13.62
2023-03-18T20:54:56.484Z,13.60
2023-03-18T20:57:24.579Z,13.63
2023-03-18T20:59:52.738Z,13.61
2023-03-18T21:02:29.722Z,13.50
2023-03-18T21:04:58.246Z,13.49
2023-03-18T21:07:28.738Z,13.53
2023-03-18T21:09:59.908Z,13.55
2023-03-18T21:12:27.912Z,13.58
2023-03-18T21:14:55.907Z,13.59
2023-03-18T21:17:25.873Z,13.53
2023-03-18T21:20:04.931Z,13.42
2023-03-18T21:22:38.995Z,13.36
2023-03-18T21:25:12.435Z,13.34
2023-03-18T21:27:40.073Z,13.33
2023-03-18T21:30:09.912Z,13.34
2023-03-18T21:32:39.850Z,13.39
2023-03-18T21:35:15.664Z,13.44
2023-03-18T21:37:43.493Z,13.47
2023-03-18T21:40:16.921Z,13.41
2023-03-18T21:42:44.701Z,13.36
2023-03-18T21:45:14.352Z,13.31
2023-03-18T21:47:42.382Z,13.26
2023-03-18T21:50:20.572Z,13.22
2023-03-18T21:52:48.581Z,13.22
2023-03-18T21:55:17.955Z,13.21
2023-03-18T21:57:48.295Z,13.20
2023-03-18T22:00:19.815Z,13.24
2023-03-18T22:02:48.755Z,13.25
2023-03-18T22:05:19.116Z,13.28
2023-03-18T22:07:47.541Z,13.27
2023-03-18T22:10:17.905Z,13.19
2023-03-18T22:12:45.942Z,13.11
2023-03-18T22:15:34.886Z,13.09
2023-03-18T22:18:03.018Z,13.07
2023-03-18T22:20:31.397Z,13.08
2023-03-18T22:22:59.182Z,13.10
2023-03-18T22:25:31.343Z,13.13
2023-03-18T22:27:59.999Z,13.15
2023-03-18T22:30:30.191Z,13.11
2023-03-18T22:32:58.652Z,13.07
2023-03-18T22:35:27.796Z,13.05
2023-03-18T22:37:56.045Z,13.04
2023-03-18T22:40:25.839Z,13.05
2023-03-18T22:42:57.004Z,12.97
2023-03-18T22:45:27.287Z,12.92
2023-03-18T22:47:56.792Z,12.91
2023-03-18T22:50:25.902Z,12.82
2023-03-18T22:52:58.915Z,12.83
2023-03-18T22:55:29.330Z,12.89
2023-03-18T22:57:58.360Z,12.89
2023-03-18T23:00:33.709Z,12.88
2023-03-18T23:03:03.305Z,12.89
2023-03-18T23:05:32.740Z,12.86
2023-03-18T23:08:00.581Z,12.81
2023-03-18T23:10:28.421Z,12.81
2023-03-18T23:12:56.241Z,12.80
2023-03-18T23:15:25.473Z,12.80
2023-03-18T23:17:53.214Z,12.80
2023-03-18T23:20:20.892Z,12.76
2023-03-18T23:22:48.556Z,12.77
2023-03-18T23:25:18.429Z,12.81
2023-03-18T23:27:46.324Z,12.83
2023-03-18T23:30:14.874Z,12.82
2023-03-18T23:32:45.186Z,12.76
2023-03-18T23:35:13.323Z,12.69
2023-03-18T23:37:41.110Z,12.71
2023-03-18T23:40:10.155Z,12.67
2023-03-18T23:42:37.825Z,12.69
2023-03-18T23:45:06.642Z,12.71
2023-03-18T23:47:34.474Z,12.70
2023-03-18T23:50:03.663Z,12.64
2023-03-18T23:52:31.237Z,12.65
2023-03-18T23:54:59.207Z,12.60
2023-03-18T23:57:27.998Z,12.65
2023-03-18T23:59:55.752Z,12.65
